createdAt,value
2018-10-04T00:00:12.603Z,98.51
2018-10-04T00:01:12.617Z,98.32
2018-10-04T00:02:12.633Z,98.51
2018-10-04T00:03:12.651Z,98.80
2018-10-04T00:04:12.657Z,98.51
2018-10-04T00:05:12.674Z,98.03
2018-10-04T00:06:12.684Z,98.42
2018-10-04T00:07:12.699Z,97.46
2018-10-04T00:08:12.715Z,98.13
2018-10-04T00:09:12.726Z,98.22
2018-10-04T00:10:12.740Z,98.99
2018-10-04T00:11:12.754Z,98.42
2018-10-04T00:12:12.766Z,98.80
2018-10-04T00:13:12.779Z,99.85
2018-10-04T00:14:12.798Z,99.99
2018-10-04T00:15:12.808Z,99.99
2018-10-04T00:16:12.822Z,98.90
2018-10-04T00:19:13.631Z,98.13
2018-10-04T00:20:12.876Z,98.03
2018-10-04T00:21:12.887Z,98.80
2018-10-04T00:22:12.902Z,98.80
2018-10-04T00:23:12.914Z,98.61
2018-10-04T00:24:12.931Z,98.61
2018-10-04T00:25:12.941Z,98.80
2018-10-04T00:26:12.957Z,98.61
2018-10-04T00:27:12.971Z,99.95
2018-10-04T00:28:12.997Z,99.37
2018-10-04T00:29:12.999Z,99.99
2018-10-04T00:30:13.011Z,99.99
2018-10-04T00:31:13.035Z,99.99
2018-10-04T00:32:13.041Z,99.46
2018-10-04T00:33:13.052Z,99.99
2018-10-04T00:34:13.080Z,99.99
2018-10-04T00:35:13.081Z,99.99
2018-10-04T00:36:13.095Z,99.99
2018-10-04T00:37:13.105Z,99.99
2018-10-04T00:38:13.121Z,99.99
2018-10-04T00:39:13.133Z,99.99
2018-10-04T00:40:13.148Z,99.85
2018-10-04T00:41:13.162Z,99.99
2018-10-04T00:42:13.177Z,99.99
2018-10-04T00:43:13.189Z,99.99
2018-10-04T00:44:13.205Z,99.99
2018-10-04T00:45:13.219Z,99.99
2018-10-04T00:46:13.294Z,99.99
2018-10-04T00:47:13.506Z,99.99
2018-10-04T00:48:13.363Z,99.99
2018-10-04T00:49:13.426Z,99.99
2018-10-04T00:50:13.452Z,99.99
2018-10-04T00:51:13.955Z,99.99
2018-10-04T00:52:13.850Z,99.99
2018-10-04T00:53:13.323Z,99.99
2018-10-04T00:54:13.341Z,99.99
2018-10-04T00:55:13.356Z,99.99
2018-10-04T00:56:13.373Z,99.99
2018-10-04T00:57:13.381Z,99.99
2018-10-04T00:58:13.392Z,99.99
2018-10-04T00:59:13.406Z,99.99
2018-10-04T01:00:13.423Z,99.99
2018-10-04T01:01:13.439Z,99.99
2018-10-04T01:02:13.449Z,99.99
2018-10-04T01:03:13.460Z,99.99
2018-10-04T01:04:13.502Z,99.99
2018-10-04T01:05:13.509Z,99.99
2018-10-04T01:06:13.507Z,99.99
2018-10-04T01:07:13.518Z,99.99
2018-10-04T01:08:13.530Z,99.99
2018-10-04T01:09:13.543Z,99.99
2018-10-04T01:10:13.558Z,99.99
2018-10-04T01:11:13.573Z,99.99
2018-10-04T01:12:13.584Z,99.99
2018-10-04T01:13:13.602Z,99.99
2018-10-04T01:14:13.611Z,99.99
2018-10-04T01:15:13.636Z,99.99
2018-10-04T01:16:13.652Z,99.99
2018-10-04T01:17:13.654Z,99.99
2018-10-04T01:18:13.666Z,99.99
2018-10-04T01:19:13.685Z,99.99
2018-10-04T01:20:14.054Z,99.99
2018-10-04T01:21:14.163Z,99.99
2018-10-04T01:22:14.237Z,99.99
2018-10-04T01:23:13.739Z,99.99
2018-10-04T01:24:13.752Z,99.99
2018-10-04T01:25:13.765Z,99.99
2018-10-04T01:26:13.802Z,99.99
2018-10-04T01:27:13.794Z,99.99
2018-10-04T01:28:13.808Z,99.99
2018-10-04T01:29:13.827Z,99.99
2018-10-04T01:30:13.832Z,99.99
2018-10-04T01:31:13.845Z,99.99
2018-10-04T01:32:13.859Z,99.99
2018-10-04T01:33:13.872Z,99.99
2018-10-04T01:34:13.885Z,99.99
2018-10-04T01:35:13.903Z,99.99
2018-10-04T01:36:13.913Z,99.99
2018-10-04T01:37:13.929Z,99.99
2018-10-04T01:38:13.940Z,99.99
2018-10-04T01:39:13.958Z,99.99
2018-10-04T01:40:13.968Z,99.99
2018-10-04T01:41:13.984Z,99.99
2018-10-04T01:42:13.993Z,99.99
2018-10-04T01:43:14.011Z,99.99
2018-10-04T01:44:14.028Z,99.99
2018-10-04T01:45:14.036Z,99.99
2018-10-04T01:46:14.048Z,99.99
2018-10-04T01:47:14.075Z,99.99
2018-10-04T01:48:14.078Z,99.99
2018-10-04T01:49:14.093Z,99.99
2018-10-04T01:50:14.117Z,99.99
2018-10-04T01:51:14.119Z,99.99
2018-10-04T01:52:14.240Z,99.99
2018-10-04T01:53:14.147Z,99.99
2018-10-04T01:54:14.160Z,99.99
2018-10-04T01:55:14.177Z,99.99
2018-10-04T01:56:14.404Z,99.99
2018-10-04T01:57:14.415Z,99.99
2018-10-04T01:59:14.229Z,99.99
2018-10-04T02:00:14.242Z,99.99
2018-10-04T02:01:14.254Z,99.99
2018-10-04T02:02:14.274Z,99.99
2018-10-04T02:03:14.286Z,99.99
2018-10-04T02:04:14.300Z,99.99
2018-10-04T02:05:14.311Z,99.99
2018-10-04T02:06:14.324Z,99.99
2018-10-04T02:07:14.340Z,99.99
2018-10-04T02:08:14.351Z,99.99
2018-10-04T02:09:14.364Z,99.99
2018-10-04T02:10:14.378Z,99.99
2018-10-04T02:11:14.400Z,99.99
2018-10-04T02:12:14.416Z,99.99
2018-10-04T02:13:14.419Z,99.99
2018-10-04T02:14:14.476Z,99.99
2018-10-04T02:15:14.461Z,99.99
2018-10-04T02:16:14.462Z,99.99
2018-10-04T02:17:14.475Z,99.99
2018-10-04T02:18:14.494Z,99.99
2018-10-04T02:19:14.529Z,99.99
2018-10-04T02:20:14.517Z,99.99
2018-10-04T02:21:14.542Z,99.99
2018-10-04T02:22:14.541Z,99.99
2018-10-04T02:23:14.591Z,99.99
2018-10-04T02:24:14.573Z,99.99
2018-10-04T02:25:14.591Z,99.99
2018-10-04T02:26:14.601Z,99.99
2018-10-04T02:27:14.611Z,99.99
2018-10-04T02:28:14.781Z,99.99
2018-10-04T02:31:14.745Z,99.99
2018-10-04T02:32:14.702Z,99.99
2018-10-04T02:33:14.695Z,99.99
2018-10-04T02:34:14.712Z,99.99
2018-10-04T02:35:14.725Z,99.99
2018-10-04T02:36:14.735Z,99.99
2018-10-04T02:37:14.750Z,99.99
2018-10-04T02:38:14.768Z,99.99
2018-10-04T02:39:14.779Z,99.99
2018-10-04T02:40:14.789Z,99.99
2018-10-04T02:41:14.812Z,99.99
2018-10-04T02:42:14.826Z,99.99
2018-10-04T02:43:14.828Z,99.99
2018-10-04T02:44:14.844Z,99.99
2018-10-04T02:45:14.858Z,99.99
2018-10-04T02:46:14.871Z,99.99
2018-10-04T02:47:14.888Z,99.99
2018-10-04T02:48:14.898Z,99.99
2018-10-04T02:49:14.914Z,99.99
2018-10-04T02:50:14.922Z,99.99
2018-10-04T02:51:14.962Z,99.99
2018-10-04T02:52:14.968Z,99.99
2018-10-04T02:53:14.967Z,99.99
2018-10-04T02:54:14.977Z,99.99
2018-10-04T02:55:14.991Z,99.99
2018-10-04T02:56:15.010Z,99.99
2018-10-04T02:57:15.019Z,99.99
2018-10-04T02:58:15.046Z,99.99
2018-10-04T03:00:15.117Z,99.99
2018-10-04T03:01:15.169Z,99.99
2018-10-04T03:02:15.098Z,99.99
2018-10-04T03:03:15.110Z,99.99
2018-10-04T03:04:15.174Z,99.99
2018-10-04T03:05:15.130Z,99.99
2018-10-04T03:06:15.156Z,99.99
2018-10-04T03:07:15.160Z,99.99
2018-10-04T03:08:15.231Z,99.99
2018-10-04T03:09:15.213Z,99.99
2018-10-04T03:10:15.273Z,99.99
2018-10-04T03:11:15.226Z,99.99
2018-10-04T03:12:15.264Z,99.99
2018-10-04T03:13:15.252Z,99.99
2018-10-04T03:14:15.258Z,99.99
2018-10-04T03:15:15.282Z,99.99
2018-10-04T03:16:15.320Z,99.99
2018-10-04T03:17:15.293Z,99.99
2018-10-04T03:18:15.320Z,99.99
2018-10-04T03:19:15.329Z,99.99
2018-10-04T03:20:15.422Z,99.99
2018-10-04T03:21:15.354Z,99.99
2018-10-04T03:22:15.362Z,99.99
2018-10-04T03:23:15.399Z,99.99
2018-10-04T03:24:15.393Z,99.99
2018-10-04T03:25:15.410Z,99.99
2018-10-04T03:26:15.437Z,99.99
2018-10-04T03:27:15.457Z,99.99
2018-10-04T03:28:15.443Z,99.99
2018-10-04T03:29:15.459Z,99.99
2018-10-04T03:30:15.627Z,99.99
2018-10-04T03:31:15.644Z,99.99
2018-10-04T03:32:15.774Z,99.99
2018-10-04T03:33:15.563Z,99.99
2018-10-04T03:34:15.638Z,99.99
2018-10-04T03:35:15.540Z,99.99
2018-10-04T03:36:15.569Z,99.99
2018-10-04T03:37:15.569Z,99.99
2018-10-04T03:38:15.583Z,99.99
2018-10-04T03:39:15.630Z,99.99
2018-10-04T03:40:15.629Z,99.99
2018-10-04T03:41:15.621Z,99.99
2018-10-04T03:42:15.645Z,99.99
2018-10-04T03:43:15.651Z,99.99
2018-10-04T03:44:15.739Z,99.99
2018-10-04T03:45:15.718Z,99.99
2018-10-04T03:46:15.698Z,99.99
2018-10-04T03:47:15.747Z,99.99
2018-10-04T03:48:15.723Z,99.99
2018-10-04T03:49:15.746Z,99.99
2018-10-04T03:50:16.685Z,99.99
2018-10-04T03:51:16.931Z,99.99
2018-10-04T03:52:15.778Z,99.99
2018-10-04T03:53:15.799Z,99.99
2018-10-04T03:54:15.871Z,99.99
2018-10-04T03:55:15.834Z,99.99
2018-10-04T03:56:15.827Z,99.99
2018-10-04T03:57:15.844Z,99.99
2018-10-04T03:58:15.871Z,99.99
2018-10-04T03:59:15.874Z,99.99
2018-10-04T04:00:15.884Z,99.99
2018-10-04T04:01:15.892Z,99.99
2018-10-04T04:02:15.902Z,99.99
2018-10-04T04:03:15.967Z,99.99
2018-10-04T04:04:16.052Z,99.99
2018-10-04T04:05:15.947Z,99.99
2018-10-04T04:06:15.958Z,99.99
2018-10-04T04:07:15.973Z,99.99
2018-10-04T04:08:15.985Z,99.99
2018-10-04T04:09:16.001Z,99.99
2018-10-04T04:10:16.017Z,99.99
2018-10-04T04:11:16.029Z,99.99
2018-10-04T04:12:16.040Z,99.99
2018-10-04T04:13:16.103Z,99.99
2018-10-04T04:14:16.067Z,99.99
2018-10-04T04:15:16.083Z,99.99
2018-10-04T04:16:16.094Z,99.99
2018-10-04T04:17:16.110Z,99.99
2018-10-04T04:18:16.124Z,99.99
2018-10-04T04:19:16.196Z,99.99
2018-10-04T04:20:16.149Z,99.99
2018-10-04T04:21:16.163Z,99.99
2018-10-04T04:22:16.235Z,99.99
2018-10-04T04:23:16.192Z,99.99
2018-10-04T04:24:16.213Z,99.99
2018-10-04T04:25:16.303Z,99.99
2018-10-04T04:26:16.233Z,99.99
2018-10-04T04:27:16.245Z,99.99
2018-10-04T04:28:16.261Z,99.99
2018-10-04T04:29:16.278Z,99.99
2018-10-04T04:30:16.286Z,99.99
2018-10-04T04:31:16.298Z,99.99
2018-10-04T04:32:16.317Z,99.99
2018-10-04T04:33:16.332Z,99.99
2018-10-04T04:34:16.340Z,99.99
2018-10-04T04:35:16.355Z,99.99
2018-10-04T04:36:16.618Z,99.99
2018-10-04T04:37:16.395Z,99.99
2018-10-04T04:38:16.401Z,99.99
2018-10-04T04:39:16.408Z,99.99
2018-10-04T04:40:16.423Z,99.99
2018-10-04T04:41:16.496Z,99.99
2018-10-04T04:42:16.565Z,99.99
2018-10-04T04:43:16.486Z,99.99
2018-10-04T04:44:16.483Z,99.99
2018-10-04T04:45:16.503Z,99.99
2018-10-04T04:46:16.505Z,99.99
2018-10-04T04:47:16.603Z,99.99
2018-10-04T04:48:16.540Z,99.99
2018-10-04T04:49:16.545Z,99.99
2018-10-04T04:50:16.565Z,99.99
2018-10-04T04:51:16.572Z,99.99
2018-10-04T04:52:16.588Z,99.99
2018-10-04T04:53:16.604Z,99.99
2018-10-04T04:54:16.613Z,99.99
2018-10-04T04:55:16.644Z,99.99
2018-10-04T04:56:16.650Z,99.99
2018-10-04T04:57:16.933Z,99.99
2018-10-04T04:58:16.670Z,99.99
2018-10-04T04:59:16.761Z,99.99
2018-10-04T05:00:16.700Z,99.99
2018-10-04T05:01:16.766Z,99.99
2018-10-04T05:02:16.843Z,99.99
2018-10-04T05:03:16.789Z,99.99
2018-10-04T05:04:16.751Z,99.99
2018-10-04T05:05:17.648Z,99.99
2018-10-04T05:06:17.233Z,99.99
2018-10-04T05:10:16.836Z,99.99
2018-10-04T05:11:16.846Z,99.99
2018-10-04T05:12:16.928Z,99.99
2018-10-04T05:13:16.881Z,99.99
2018-10-04T05:14:16.886Z,99.99
2018-10-04T05:15:17.079Z,99.99
2018-10-04T05:16:17.098Z,99.99
2018-10-04T05:17:17.039Z,99.99
2018-10-04T05:18:17.421Z,99.99
2018-10-04T05:19:17.115Z,99.99
2018-10-04T05:20:17.160Z,99.99
2018-10-04T05:21:17.369Z,99.99
2018-10-04T05:22:17.054Z,99.99
2018-10-04T05:23:17.134Z,99.99
2018-10-04T05:24:17.023Z,99.99
2018-10-04T05:25:17.039Z,99.99
2018-10-04T05:26:17.059Z,99.99
2018-10-04T05:27:17.082Z,99.99
2018-10-04T05:28:17.079Z,99.99
2018-10-04T05:29:17.434Z,99.99
2018-10-04T05:30:17.109Z,99.99
2018-10-04T05:31:17.626Z,99.99
2018-10-04T05:32:17.559Z,99.99
2018-10-04T05:33:17.389Z,99.99
2018-10-04T05:34:17.163Z,99.99
2018-10-04T05:35:17.497Z,99.99
2018-10-04T05:36:17.253Z,99.99
2018-10-04T05:37:17.340Z,99.99
2018-10-04T05:38:17.217Z,99.99
2018-10-04T05:39:17.242Z,99.99
2018-10-04T05:40:17.250Z,99.99
2018-10-04T05:41:17.277Z,99.99
2018-10-04T05:42:17.276Z,99.99
2018-10-04T05:43:17.382Z,99.99
2018-10-04T05:44:17.328Z,99.99
2018-10-04T05:45:17.463Z,99.99
2018-10-04T05:46:17.614Z,99.99
2018-10-04T05:47:17.341Z,99.99
2018-10-04T05:48:17.538Z,99.99
2018-10-04T05:49:17.452Z,99.99
2018-10-04T05:50:17.663Z,99.99
2018-10-04T05:51:17.396Z,99.99
2018-10-04T05:52:17.452Z,99.99
2018-10-04T05:53:17.506Z,99.99
2018-10-04T05:54:17.840Z,99.99
2018-10-04T05:55:17.453Z,99.99
2018-10-04T05:56:17.465Z,99.99
2018-10-04T05:57:17.477Z,99.99
2018-10-04T05:58:17.489Z,99.99
2018-10-04T05:59:17.513Z,99.99
2018-10-04T06:00:17.519Z,99.99
2018-10-04T06:01:17.570Z,99.99
2018-10-04T06:02:18.316Z,99.99
2018-10-04T06:03:17.865Z,99.99
2018-10-04T06:04:17.574Z,99.99
2018-10-04T06:05:17.697Z,99.99
2018-10-04T06:06:17.599Z,99.99
2018-10-04T06:07:17.616Z,99.99
2018-10-04T06:08:17.642Z,99.99
2018-10-04T06:09:17.653Z,99.99
2018-10-04T06:10:17.654Z,99.99
2018-10-04T06:11:17.696Z,99.99
2018-10-04T06:12:17.689Z,99.99
2018-10-04T06:13:17.696Z,99.99
2018-10-04T06:14:17.718Z,99.99
2018-10-04T06:15:17.786Z,99.99
2018-10-04T06:16:17.787Z,99.99
2018-10-04T06:17:18.138Z,99.99
2018-10-04T06:18:18.221Z,99.99
2018-10-04T06:19:17.871Z,99.99
2018-10-04T06:20:17.794Z,99.99
2018-10-04T06:21:17.814Z,99.99
2018-10-04T06:22:18.759Z,99.99
2018-10-04T06:23:18.623Z,99.99
2018-10-04T06:24:18.128Z,99.99
2018-10-04T06:25:18.731Z,99.99
2018-10-04T06:26:18.297Z,99.99
2018-10-04T06:27:18.813Z,99.99
2018-10-04T06:28:18.939Z,99.99
2018-10-04T06:29:19.370Z,99.99
2018-10-04T06:30:19.015Z,99.99
2018-10-04T06:31:19.170Z,99.99
2018-10-04T06:32:17.963Z,99.99
2018-10-04T06:33:17.982Z,99.99
2018-10-04T06:34:17.988Z,99.99
2018-10-04T06:35:18.189Z,99.99
2018-10-04T06:36:18.048Z,99.99
2018-10-04T06:37:18.155Z,99.99
2018-10-04T06:39:18.491Z,99.99
2018-10-04T06:42:18.101Z,99.99
2018-10-04T06:43:18.111Z,99.99
2018-10-04T06:44:18.135Z,99.99
2018-10-04T06:45:18.143Z,99.99
2018-10-04T06:46:18.162Z,99.99
2018-10-04T06:47:18.166Z,99.99
2018-10-04T06:50:19.233Z,99.99
2018-10-04T06:51:18.238Z,99.99
2018-10-04T06:52:18.705Z,99.99
2018-10-04T06:54:18.768Z,99.99
2018-10-04T06:55:19.018Z,99.99
2018-10-04T06:56:18.293Z,99.99
2018-10-04T06:57:19.055Z,99.99
2018-10-04T06:58:18.449Z,99.99
2018-10-04T06:59:18.377Z,99.99
2018-10-04T07:00:18.349Z,99.99
2018-10-04T07:01:18.367Z,99.99
2018-10-04T07:02:18.397Z,99.99
2018-10-04T07:03:18.393Z,99.99
2018-10-04T07:04:18.417Z,99.99
2018-10-04T07:05:18.419Z,99.99
2018-10-04T07:06:18.440Z,99.99
2018-10-04T07:07:18.635Z,99.99
2018-10-04T07:08:18.707Z,99.99
2018-10-04T07:09:18.480Z,99.99
2018-10-04T07:10:18.570Z,99.99
2018-10-04T07:11:18.501Z,99.99
2018-10-04T07:12:18.515Z,99.99
2018-10-04T07:13:18.540Z,99.99
2018-10-04T07:14:18.554Z,99.99
2018-10-04T07:15:18.555Z,99.99
2018-10-04T07:16:18.587Z,99.99
2018-10-04T07:17:18.584Z,99.99
2018-10-04T07:18:18.613Z,99.99
2018-10-04T07:19:18.617Z,99.99
2018-10-04T07:20:18.651Z,99.99
2018-10-04T07:21:18.655Z,99.99
2018-10-04T07:22:18.758Z,99.99
2018-10-04T07:23:18.679Z,99.99
2018-10-04T07:24:18.685Z,99.99
2018-10-04T07:25:18.833Z,99.99
2018-10-04T07:26:18.860Z,99.99
2018-10-04T07:27:19.007Z,99.99
2018-10-04T07:28:18.774Z,99.99
2018-10-04T07:29:18.758Z,99.99
2018-10-04T07:30:18.917Z,99.99
2018-10-04T07:31:18.884Z,99.99
2018-10-04T07:32:18.796Z,99.99
2018-10-04T07:33:18.817Z,99.99
2018-10-04T07:34:18.824Z,99.99
2018-10-04T07:35:18.839Z,99.99
2018-10-04T07:36:18.869Z,99.99
2018-10-04T07:37:19.123Z,99.99
2018-10-04T07:38:18.878Z,99.99
2018-10-04T07:39:18.892Z,99.99
2018-10-04T07:40:18.909Z,99.99
2018-10-04T07:41:18.921Z,99.99
2018-10-04T07:42:18.949Z,99.99
2018-10-04T07:43:18.952Z,99.99
2018-10-04T07:44:18.965Z,99.99
2018-10-04T07:45:18.987Z,99.99
2018-10-04T07:46:19.014Z,99.99
2018-10-04T07:47:19.017Z,99.99
2018-10-04T07:48:19.029Z,99.99
2018-10-04T07:49:19.033Z,99.99
2018-10-04T07:50:19.134Z,99.99
2018-10-04T07:51:19.087Z,99.99
2018-10-04T07:52:19.078Z,99.99
2018-10-04T07:53:19.145Z,99.99
2018-10-04T07:54:19.119Z,99.99
2018-10-04T07:55:19.138Z,99.99
2018-10-04T07:56:19.141Z,99.99
2018-10-04T07:57:19.200Z,99.99
2018-10-04T07:58:19.235Z,99.99
2018-10-04T07:59:19.350Z,99.99
2018-10-04T08:00:19.411Z,99.99
2018-10-04T08:01:19.384Z,99.99
2018-10-04T08:02:19.216Z,99.99
2018-10-04T08:03:19.235Z,99.99
2018-10-04T08:04:19.245Z,99.99
2018-10-04T08:05:19.294Z,99.99
2018-10-04T08:06:19.437Z,99.99
2018-10-04T08:07:19.298Z,99.99
2018-10-04T08:08:19.303Z,99.99
2018-10-04T08:09:19.317Z,99.99
2018-10-04T08:10:19.561Z,99.99
2018-10-04T08:11:19.344Z,99.99
2018-10-04T08:12:19.356Z,99.99
2018-10-04T08:13:19.369Z,99.99
2018-10-04T08:14:19.595Z,99.99
2018-10-04T08:15:19.629Z,99.99
2018-10-04T08:16:19.641Z,99.99
2018-10-04T08:17:19.429Z,99.99
2018-10-04T08:18:19.441Z,99.99
2018-10-04T08:19:19.908Z,99.99
2018-10-04T08:20:19.699Z,99.99
2018-10-04T08:21:19.648Z,99.99
2018-10-04T08:22:19.496Z,99.99
2018-10-04T08:23:19.514Z,99.99
2018-10-04T08:24:19.883Z,99.99
2018-10-04T08:25:19.828Z,99.99
2018-10-04T08:27:20.139Z,99.99
2018-10-04T08:28:19.858Z,99.99
2018-10-04T08:29:19.601Z,99.99
2018-10-04T08:30:19.637Z,99.99
2018-10-04T08:31:19.625Z,99.99
2018-10-04T08:32:19.683Z,99.99
2018-10-04T08:33:19.665Z,99.99
2018-10-04T08:34:19.672Z,99.99
2018-10-04T08:35:19.714Z,99.99
2018-10-04T08:36:19.705Z,99.99
2018-10-04T08:37:19.711Z,99.99
2018-10-04T08:38:19.732Z,99.99
2018-10-04T08:40:19.752Z,99.99
2018-10-04T08:41:19.786Z,99.99
2018-10-04T08:42:19.790Z,99.99
2018-10-04T08:43:19.803Z,99.99
2018-10-04T08:44:19.813Z,99.99
2018-10-04T08:45:19.830Z,99.99
2018-10-04T08:46:19.847Z,99.99
2018-10-04T08:47:19.856Z,99.99
2018-10-04T08:48:19.971Z,99.99
2018-10-04T08:49:19.880Z,99.99
2018-10-04T08:50:19.898Z,99.99
2018-10-04T08:51:19.913Z,99.99
2018-10-04T08:52:19.925Z,99.99
2018-10-04T08:53:19.945Z,99.99
2018-10-04T08:54:20.047Z,99.99
2018-10-04T08:55:19.971Z,99.99
2018-10-04T08:56:20.009Z,99.99
2018-10-04T08:57:20.001Z,99.99
2018-10-04T08:58:20.015Z,99.99
2018-10-04T08:59:20.027Z,99.99
2018-10-04T09:00:20.054Z,99.99
2018-10-04T09:01:20.058Z,99.99
2018-10-04T09:02:20.081Z,99.99
2018-10-04T09:03:20.095Z,99.99
2018-10-04T09:04:20.104Z,99.99
2018-10-04T09:05:20.115Z,99.99
2018-10-04T09:06:20.131Z,99.99
2018-10-04T09:07:20.237Z,99.99
2018-10-04T09:08:20.160Z,99.99
2018-10-04T09:09:20.172Z,99.99
2018-10-04T09:10:20.192Z,99.99
2018-10-04T09:11:20.203Z,99.99
2018-10-04T09:12:20.219Z,99.99
2018-10-04T09:13:20.252Z,99.99
2018-10-04T09:14:20.243Z,99.99
2018-10-04T09:15:20.259Z,99.99
2018-10-04T09:16:20.277Z,99.99
2018-10-04T09:17:20.289Z,99.99
2018-10-04T09:18:20.300Z,99.81
2018-10-04T09:19:20.325Z,99.99
2018-10-04T09:20:20.331Z,99.99
2018-10-04T09:21:20.350Z,99.14
2018-10-04T09:22:20.364Z,99.99
2018-10-04T09:23:20.375Z,99.99
2018-10-04T09:24:20.388Z,99.99
2018-10-04T09:25:20.404Z,98.85
2018-10-04T09:26:20.493Z,98.66
2018-10-04T09:27:20.441Z,99.04
2018-10-04T09:28:20.451Z,99.19
2018-10-04T09:29:20.498Z,99.67
2018-10-04T09:30:20.475Z,99.99
2018-10-04T09:31:20.492Z,99.86
2018-10-04T09:32:20.504Z,99.99
2018-10-04T09:33:20.525Z,98.71
2018-10-04T09:34:20.540Z,99.38
2018-10-04T09:36:20.570Z,99.86
2018-10-04T09:37:20.577Z,99.96
2018-10-04T09:38:20.619Z,99.99
2018-10-04T09:39:20.608Z,99.29
2018-10-04T09:40:20.631Z,99.29
2018-10-04T09:41:20.768Z,99.29
2018-10-04T09:42:20.653Z,99.99
2018-10-04T09:43:20.672Z,99.38
2018-10-04T09:44:20.712Z,99.76
2018-10-04T09:45:20.700Z,99.00
2018-10-04T09:46:20.786Z,99.00
2018-10-04T09:47:20.729Z,99.00
2018-10-04T09:48:20.762Z,99.76
2018-10-04T09:49:20.771Z,99.00
2018-10-04T09:50:20.779Z,99.48
2018-10-04T09:51:20.786Z,99.67
2018-10-04T09:52:20.851Z,99.19
2018-10-04T09:53:20.831Z,99.19
2018-10-04T09:54:20.825Z,99.57
2018-10-04T09:55:20.864Z,99.48
2018-10-04T09:56:20.853Z,99.86
2018-10-04T09:57:20.871Z,99.81
2018-10-04T09:58:20.882Z,99.99
2018-10-04T09:59:20.906Z,99.99
2018-10-04T10:00:20.920Z,99.99
2018-10-04T10:01:20.943Z,99.99
2018-10-04T10:02:20.955Z,99.99
2018-10-04T10:03:21.002Z,99.99
2018-10-04T10:04:20.989Z,99.99
2018-10-04T10:05:21.067Z,99.99
2018-10-04T10:06:21.024Z,99.86
2018-10-04T10:07:21.040Z,99.99
2018-10-04T10:08:21.029Z,99.29
2018-10-04T10:09:21.060Z,99.99
2018-10-04T10:10:21.068Z,99.99
2018-10-04T10:11:21.095Z,99.99
2018-10-04T10:12:21.092Z,99.86
2018-10-04T10:13:21.111Z,99.48
2018-10-04T10:14:21.120Z,99.29
2018-10-04T10:15:21.144Z,98.43
2018-10-04T10:16:21.151Z,98.43
2018-10-04T10:17:21.188Z,98.90
2018-10-04T10:18:21.194Z,98.61
2018-10-04T10:19:21.210Z,98.52
2018-10-04T10:20:21.224Z,97.85
2018-10-04T10:21:21.220Z,99.29
2018-10-04T10:22:21.237Z,98.90
2018-10-04T10:23:21.258Z,98.52
2018-10-04T10:24:21.379Z,97.85
2018-10-04T10:25:21.278Z,98.71
2018-10-04T10:26:21.304Z,99.10
2018-10-04T10:27:21.354Z,99.00
2018-10-04T10:28:21.340Z,97.95
2018-10-04T10:29:21.340Z,98.90
2018-10-04T10:30:21.359Z,98.00
2018-10-04T10:31:21.370Z,98.47
2018-10-04T10:32:21.380Z,98.09
2018-10-04T10:33:21.393Z,97.90
2018-10-04T10:34:21.443Z,97.71
2018-10-04T10:35:21.428Z,96.27
2018-10-04T10:36:21.444Z,97.61
2018-10-04T10:37:21.494Z,97.33
2018-10-04T10:38:21.470Z,97.80
2018-10-04T10:39:21.484Z,97.42
2018-10-04T10:40:21.639Z,96.84
2018-10-04T10:41:21.538Z,97.52
2018-10-04T10:42:21.533Z,97.23
2018-10-04T10:43:21.561Z,96.84
2018-10-04T10:44:21.592Z,97.42
2018-10-04T10:45:21.588Z,95.70
2018-10-04T10:46:21.689Z,95.79
2018-10-04T10:47:21.614Z,96.08
2018-10-04T10:48:21.620Z,95.27
2018-10-04T10:49:21.642Z,94.98
2018-10-04T10:50:21.649Z,94.50
2018-10-04T10:51:21.672Z,94.40
2018-10-04T10:52:21.713Z,95.17
2018-10-04T10:53:21.760Z,95.07
2018-10-04T10:54:21.706Z,95.17
2018-10-04T10:55:21.732Z,93.93
2018-10-04T10:56:21.742Z,94.89
2018-10-04T10:57:21.749Z,94.21
2018-10-04T10:58:21.773Z,94.31
2018-10-04T10:59:21.781Z,93.45
2018-10-04T11:00:21.811Z,93.69
2018-10-04T11:01:21.811Z,93.88
2018-10-04T11:02:21.847Z,93.21
2018-10-04T11:03:21.860Z,93.78
2018-10-04T11:04:21.915Z,92.92
2018-10-04T11:05:22.014Z,91.96
2018-10-04T11:06:21.912Z,92.54
2018-10-04T11:07:21.937Z,91.86
2018-10-04T11:08:21.976Z,92.15
2018-10-04T11:09:22.013Z,92.54
2018-10-04T11:10:21.952Z,92.63
2018-10-04T11:11:22.038Z,91.00
2018-10-04T11:12:21.978Z,90.72
2018-10-04T11:13:21.992Z,91.00
2018-10-04T11:14:22.007Z,91.86
2018-10-04T11:15:22.022Z,92.25
2018-10-04T11:16:22.048Z,91.10
2018-10-04T11:17:22.048Z,91.00
2018-10-04T11:18:22.287Z,91.86
2018-10-04T11:19:22.089Z,92.54
2018-10-04T11:20:22.117Z,91.86
2018-10-04T11:21:22.104Z,91.67
2018-10-04T11:22:22.813Z,91.77
2018-10-04T11:23:22.138Z,92.54
2018-10-04T11:24:22.204Z,91.49
2018-10-04T11:25:22.160Z,91.49
2018-10-04T11:26:22.174Z,90.05
2018-10-04T11:27:22.201Z,91.19
2018-10-04T11:28:22.209Z,90.91
2018-10-04T11:29:22.361Z,91.19
2018-10-04T11:30:22.818Z,90.81
2018-10-04T11:31:22.255Z,90.72
2018-10-04T11:32:22.265Z,90.05
2018-10-04T11:33:22.295Z,91.00
2018-10-04T11:34:22.363Z,91.29
2018-10-04T11:35:22.373Z,89.37
2018-10-04T11:36:22.343Z,90.23
2018-10-04T11:37:22.464Z,89.95
2018-10-04T11:38:22.354Z,90.33
2018-10-04T11:39:22.413Z,89.42
2018-10-04T11:40:22.422Z,89.76
2018-10-04T11:41:22.419Z,89.51
2018-10-04T11:42:22.428Z,89.13
2018-10-04T11:43:22.430Z,90.19
2018-10-04T11:44:22.447Z,89.71
2018-10-04T11:45:22.459Z,89.42
2018-10-04T11:46:22.476Z,88.56
2018-10-04T11:47:22.493Z,88.75
2018-10-04T11:48:22.532Z,87.79
2018-10-04T11:49:22.522Z,87.02
2018-10-04T11:50:22.541Z,88.27
2018-10-04T11:51:22.556Z,88.08
2018-10-04T11:52:22.571Z,88.56
2018-10-04T11:53:22.583Z,88.27
2018-10-04T11:54:22.664Z,87.70
2018-10-04T11:55:22.649Z,88.12
2018-10-04T11:56:22.637Z,88.98
2018-10-04T11:57:22.646Z,88.22
2018-10-04T11:58:22.663Z,86.30
2018-10-04T11:59:22.727Z,86.54
2018-10-04T12:00:22.695Z,85.38
2018-10-04T12:01:22.720Z,85.00
2018-10-04T12:02:22.740Z,84.91
2018-10-04T12:03:22.759Z,85.86
2018-10-04T12:04:22.749Z,85.86
2018-10-04T12:05:22.785Z,84.71
2018-10-04T12:06:22.781Z,85.48
2018-10-04T12:07:22.794Z,85.67
2018-10-04T12:08:22.847Z,86.44
2018-10-04T12:09:22.829Z,85.96
2018-10-04T12:10:22.856Z,86.15
2018-10-04T12:11:23.095Z,86.11
2018-10-04T12:12:23.190Z,85.00
2018-10-04T12:13:23.022Z,85.10
2018-10-04T12:14:22.916Z,85.67
2018-10-04T12:15:23.015Z,86.15
2018-10-04T12:16:23.284Z,85.38
2018-10-04T12:17:23.001Z,85.77
2018-10-04T12:18:22.973Z,85.86
2018-10-04T12:19:22.990Z,85.42
2018-10-04T12:20:22.996Z,83.98
2018-10-04T12:21:23.056Z,82.64
2018-10-04T12:22:23.024Z,81.78
2018-10-04T12:23:23.042Z,81.87
2018-10-04T12:24:23.635Z,83.70
2018-10-04T12:25:23.166Z,81.59
2018-10-04T12:26:23.089Z,81.30
2018-10-04T12:27:23.103Z,81.78
2018-10-04T12:28:23.120Z,81.40
2018-10-04T12:29:23.166Z,81.68
2018-10-04T12:30:23.166Z,81.68
2018-10-04T12:31:23.412Z,80.82
2018-10-04T12:32:23.181Z,80.82
2018-10-04T12:33:23.195Z,81.97
2018-10-04T12:34:23.215Z,81.40
2018-10-04T12:35:23.238Z,82.16
2018-10-04T12:36:23.259Z,81.30
2018-10-04T12:37:23.340Z,82.01
2018-10-04T12:38:23.475Z,83.07
2018-10-04T12:39:23.294Z,81.72
2018-10-04T12:40:23.318Z,81.82
2018-10-04T12:41:23.322Z,82.10
2018-10-04T12:42:23.345Z,81.53
2018-10-04T12:43:23.383Z,81.72
2018-10-04T12:44:23.368Z,83.07
2018-10-04T12:45:23.388Z,81.53
2018-10-04T12:46:23.460Z,80.76
2018-10-04T12:47:23.417Z,80.09
2018-10-04T12:48:23.459Z,80.86
2018-10-04T12:49:23.447Z,79.52
2018-10-04T12:50:23.500Z,79.52
2018-10-04T12:51:23.493Z,80.86
2018-10-04T12:52:24.633Z,81.53
2018-10-04T12:53:23.618Z,81.34
2018-10-04T12:54:23.575Z,80.86
2018-10-04T12:55:23.569Z,80.19
2018-10-04T12:56:23.591Z,81.34
2018-10-04T12:57:23.588Z,79.71
2018-10-04T12:58:23.662Z,80.19
2018-10-04T12:59:23.650Z,81.24
2018-10-04T13:00:23.619Z,80.76
2018-10-04T13:01:23.637Z,81.53
2018-10-04T13:02:23.715Z,80.86
2018-10-04T13:03:23.688Z,80.57
2018-10-04T13:04:23.701Z,80.09
2018-10-04T13:05:23.697Z,79.42
2018-10-04T13:06:23.824Z,78.27
2018-10-04T13:07:23.732Z,78.45
2018-10-04T13:08:23.805Z,77.40
2018-10-04T13:09:23.772Z,78.50
2018-10-04T13:10:23.778Z,78.78